Time;durP1;ratioP1;P1;durP2;ratioP2;P2;SDS_P1;SDS_P2;PMS_P1;PMS_P2;Temp;Humidity;BMP_temperature;BMP_pressure;BME280_temperature;BME280_humidity;BME280_pressure;Samples;Min_cycle;Max_cycle;Signal;HPM_P1;HPM_P2
2021/03/20 00:01:17;;;;;;;21.42;11.55;;;3.60;99.90;;;;;;5072978;28;20031;-77
2021/03/20 00:03:44;;;;;;;25.40;11.48;;;3.60;99.90;;;;;;5058604;28;20037;-77
2021/03/20 00:06:12;;;;;;;20.05;12.10;;;3.50;99.90;;;;;;5071846;28;20028;-73
2021/03/20 00:08:49;;;;;;;20.17;11.95;;;3.60;99.90;;;;;;5071213;28;20111;-76
2021/03/20 00:11:19;;;;;;;23.73;12.63;;;3.50;99.90;;;;;;5070626;28;20029;-76
2021/03/20 00:13:45;;;;;;;21.30;12.02;;;3.40;99.90;;;;;;5072951;28;20024;-74
2021/03/20 00:16:12;;;;;;;24.70;11.75;;;3.40;99.90;;;;;;5061765;28;20025;-76
2021/03/20 00:18:38;;;;;;;19.83;11.90;;;3.40;99.90;;;;;;5073075;28;20024;-74
2021/03/20 00:21:06;;;;;;;21.35;13.32;;;3.40;99.90;;;;;;5073958;28;20082;-74
2021/03/20 00:23:31;;;;;;;19.67;11.48;;;3.50;99.90;;;;;;5075255;28;20531;-75
2021/03/20 00:25:57;;;;;;;21.88;11.07;;;3.50;99.90;;;;;;5074453;28;20037;-75
2021/03/20 00:28:28;;;;;;;21.77;12.30;;;3.50;99.90;;;;;;5066921;28;20029;-75
2021/03/20 00:30:58;;;;;;;24.35;12.32;;;3.50;99.90;;;;;;5066020;28;20130;-76
2021/03/20 00:33:25;;;;;;;27.45;12.10;;;3.50;99.90;;;;;;5072949;28;20025;-75
2021/03/20 00:35:52;;;;;;;20.90;12.20;;;3.50;99.90;;;;;;5071435;28;20035;-73
2021/03/20 00:38:22;;;;;;;21.73;12.30;;;3.50;99.90;;;;;;5071229;28;20028;-75
2021/03/20 00:40:48;;;;;;;19.92;11.45;;;3.50;99.90;;;;;;5068746;28;20025;-73
2021/03/20 00:43:16;;;;;;;18.00;10.95;;;3.50;99.90;;;;;;5070792;28;20040;-75
2021/03/20 00:45:42;;;;;;;17.13;11.02;;;3.50;99.90;;;;;;5070100;28;20028;-76
2021/03/20 00:48:14;;;;;;;20.23;11.63;;;3.50;99.90;;;;;;5071449;28;20047;-75
2021/03/20 00:50:40;;;;;;;19.98;12.15;;;3.50;99.90;;;;;;5067211;28;20434;-74
2021/03/20 00:53:07;;;;;;;20.42;12.18;;;3.40;99.90;;;;;;5073612;28;20033;-74
2021/03/20 00:55:33;;;;;;;22.80;12.55;;;3.40;99.90;;;;;;5076205;28;20086;-75
2021/03/20 00:57:59;;;;;;;23.55;12.55;;;3.40;99.90;;;;;;5077321;28;20712;-75
2021/03/20 01:00:27;;;;;;;18.38;11.65;;;3.40;99.90;;;;;;5075991;28;20088;-75
2021/03/20 01:02:53;;;;;;;22.38;11.65;;;3.30;99.90;;;;;;5071595;28;20020;-74
2021/03/20 01:05:19;;;;;;;19.95;11.43;;;3.20;99.90;;;;;;5067104;28;20059;-74
2021/03/20 01:07:45;;;;;;;21.83;11.18;;;3.20;99.90;;;;;;5073288;28;20043;-75
2021/03/20 01:10:21;;;;;;;22.15;11.80;;;3.20;99.90;;;;;;5069497;28;20046;-75
2021/03/20 01:13:01;;;;;;;20.48;11.95;;;3.20;99.90;;;;;;5071021;28;20059;-74
2021/03/20 01:15:30;;;;;;;19.23;12.40;;;3.20;99.90;;;;;;5070883;28;20383;-74
2021/03/20 01:17:55;;;;;;;20.20;10.90;;;3.20;99.90;;;;;;5071001;28;20570;-74
2021/03/20 01:20:21;;;;;;;18.73;10.95;;;3.20;99.90;;;;;;5070741;28;20020;-76
2021/03/20 01:22:48;;;;;;;20.63;11.48;;;3.20;99.90;;;;;;5071444;28;20050;-75
2021/03/20 01:25:14;;;;;;;18.83;10.55;;;3.10;99.90;;;;;;5069876;28;20040;-74
2021/03/20 01:27:40;;;;;;;17.42;12.48;;;3.10;99.90;;;;;;5070982;28;20025;-74
2021/03/20 01:30:09;;;;;;;25.83;11.98;;;3.10;99.90;;;;;;5069530;28;20427;-76
2021/03/20 01:32:34;;;;;;;18.33;11.82;;;3.00;99.90;;;;;;5061113;28;20020;-73
2021/03/20 01:35:00;;;;;;;20.33;12.43;;;3.00;99.90;;;;;;5065171;28;20044;-73
2021/03/20 01:37:30;;;;;;;19.35;11.38;;;3.00;99.90;;;;;;5069259;28;20020;-75
2021/03/20 01:39:55;;;;;;;21.80;11.73;;;2.90;99.90;;;;;;5070562;28;20028;-74
2021/03/20 01:42:21;;;;;;;24.40;12.02;;;2.90;99.90;;;;;;5070989;28;20099;-74
2021/03/20 01:45:15;;;;;;;16.58;11.05;;;2.90;99.90;;;;;;5065107;28;20107;-73
2021/03/20 01:47:51;;;;;;;20.52;11.90;;;2.90;99.90;;;;;;5067518;28;20028;-76
2021/03/20 01:50:31;;;;;;;20.88;11.90;;;2.90;99.90;;;;;;5062511;28;20029;-75
2021/03/20 01:53:01;;;;;;;22.33;11.70;;;2.90;99.90;;;;;;5070123;28;20013;-76
2021/03/20 01:55:28;;;;;;;24.42;12.05;;;2.90;99.90;;;;;;5063809;28;20021;-76
2021/03/20 01:58:03;;;;;;;20.13;12.02;;;2.80;99.90;;;;;;5070714;28;20031;-74
2021/03/20 02:00:39;;;;;;;19.80;12.43;;;2.80;99.90;;;;;;5071217;28;20474;-74
2021/03/20 02:03:18;;;;;;;18.20;11.43;;;2.80;99.90;;;;;;5066617;28;20021;-75
2021/03/20 02:05:45;;;;;;;23.05;12.43;;;2.70;99.90;;;;;;5070765;28;20467;-73
2021/03/20 02:08:13;;;;;;;22.20;12.10;;;2.70;99.90;;;;;;5069725;28;20077;-73
2021/03/20 02:10:43;;;;;;;21.27;11.90;;;2.70;99.90;;;;;;5070675;28;20043;-74
2021/03/20 02:13:33;;;;;;;19.52;11.52;;;2.70;99.90;;;;;;5069374;28;20025;-75
2021/03/20 02:16:31;;;;;;;19.95;11.27;;;2.70;99.90;;;;;;5057897;28;20108;-74
2021/03/20 02:19:13;;;;;;;20.15;12.48;;;2.70;99.90;;;;;;5066003;28;20064;-73
2021/03/20 02:22:00;;;;;;;19.80;12.63;;;2.60;99.90;;;;;;5071362;28;20559;-73
2021/03/20 02:25:16;;;;;;;21.70;13.68;;;2.50;99.90;;;;;;5069409;28;20112;-74
2021/03/20 02:28:30;;;;;;;16.35;11.80;;;2.50;99.90;;;;;;5057631;28;20562;-75
2021/03/20 02:31:33;;;;;;;20.38;12.20;;;2.50;99.90;;;;;;5072540;28;20665;-75
2021/03/20 02:34:05;;;;;;;25.33;13.23;;;2.50;99.90;;;;;;5070817;28;20491;-74
2021/03/20 02:36:59;;;;;;;19.20;11.95;;;2.40;99.90;;;;;;5075856;28;20028;-73
2021/03/20 02:39:31;;;;;;;27.10;13.20;;;2.40;99.90;;;;;;5074099;28;20017;-75
2021/03/20 02:42:03;;;;;;;22.45;13.15;;;2.40;99.90;;;;;;5073762;28;20035;-73
2021/03/20 02:44:40;;;;;;;20.50;14.07;;;2.30;99.90;;;;;;5074306;28;20515;-74
2021/03/20 02:47:11;;;;;;;23.45;13.52;;;2.30;99.90;;;;;;5074199;28;20032;-74
2021/03/20 02:50:02;;;;;;;23.00;14.18;;;2.20;99.90;;;;;;5072560;28;20036;-74
2021/03/20 02:52:38;;;;;;;21.63;13.48;;;2.10;99.90;;;;;;5072669;28;20031;-75
2021/03/20 02:55:15;;;;;;;22.52;14.10;;;2.10;99.90;;;;;;5069185;28;20434;-75
2021/03/20 02:57:57;;;;;;;29.73;12.93;;;2.10;99.90;;;;;;5076625;28;20024;-74
2021/03/20 03:00:30;;;;;;;19.70;13.50;;;2.10;99.90;;;;;;5080158;28;20052;-73
2021/03/20 03:02:57;;;;;;;19.42;12.60;;;2.20;99.90;;;;;;5078246;28;20012;-74
2021/03/20 03:05:28;;;;;;;19.23;12.60;;;2.30;99.90;;;;;;5076507;28;20492;-75
2021/03/20 03:08:13;;;;;;;21.02;14.27;;;2.30;99.90;;;;;;5070609;28;20029;-73
2021/03/20 03:10:54;;;;;;;24.60;13.35;;;2.20;99.90;;;;;;5077907;28;20503;-74
2021/03/20 03:13:27;;;;;;;23.67;13.88;;;2.20;99.90;;;;;;5065905;28;20089;-73
2021/03/20 03:16:09;;;;;;;22.08;14.68;;;2.10;99.90;;;;;;5077364;28;20035;-73
2021/03/20 03:18:43;;;;;;;23.80;13.70;;;2.10;99.90;;;;;;5076557;28;20045;-74
2021/03/20 03:21:14;;;;;;;22.85;13.98;;;2.10;99.90;;;;;;5074239;28;20124;-76
2021/03/20 03:23:42;;;;;;;23.67;14.63;;;2.10;99.90;;;;;;5062452;28;20029;-74
2021/03/20 03:26:39;;;;;;;21.77;13.90;;;2.00;99.90;;;;;;5074454;28;20450;-75
2021/03/20 03:29:13;;;;;;;27.70;15.63;;;2.00;99.90;;;;;;5057477;28;20043;-73
2021/03/20 03:32:09;;;;;;;26.63;15.07;;;2.00;99.90;;;;;;5074499;28;20043;-75
2021/03/20 03:34:55;;;;;;;23.88;15.27;;;2.00;99.90;;;;;;5067022;28;20028;-73
2021/03/20 03:37:29;;;;;;;27.60;14.50;;;1.90;99.90;;;;;;5075405;28;20033;-74
2021/03/20 03:40:14;;;;;;;27.20;14.68;;;1.90;99.90;;;;;;5073442;28;20042;-75
2021/03/20 03:42:49;;;;;;;24.50;14.75;;;1.90;99.90;;;;;;5073714;28;20028;-74
2021/03/20 03:45:22;;;;;;;28.05;15.13;;;1.90;99.90;;;;;;5066428;28;20025;-73
2021/03/20 03:47:50;;;;;;;26.20;14.85;;;1.90;99.90;;;;;;5053112;28;20032;-73
2021/03/20 03:50:28;;;;;;;24.90;15.35;;;1.90;99.90;;;;;;5071699;28;20033;-74
2021/03/20 03:52:55;;;;;;;25.40;14.35;;;1.90;99.90;;;;;;5073756;28;20029;-74
2021/03/20 03:55:22;;;;;;;24.40;14.77;;;1.80;99.90;;;;;;5071031;28;20028;-75
2021/03/20 03:58:20;;;;;;;25.05;14.68;;;1.80;99.90;;;;;;5071558;28;20028;-74
2021/03/20 04:00:53;;;;;;;23.27;14.85;;;1.80;99.90;;;;;;5072566;28;20532;-74
2021/03/20 04:03:42;;;;;;;25.27;14.60;;;1.80;99.90;;;;;;5072288;28;20021;-74
2021/03/20 04:06:18;;;;;;;23.63;15.07;;;1.80;99.90;;;;;;5061512;28;20029;-74
2021/03/20 04:08:56;;;;;;;23.27;15.15;;;1.80;99.90;;;;;;5071632;28;20047;-74
2021/03/20 04:11:26;;;;;;;28.35;15.68;;;1.80;99.90;;;;;;5073131;28;20032;-75
2021/03/20 04:14:09;;;;;;;30.15;17.38;;;1.70;99.90;;;;;;5070499;28;20084;-74
2021/03/20 04:16:52;;;;;;;28.13;16.33;;;1.70;99.90;;;;;;5059383;28;20032;-74
2021/03/20 04:19:44;;;;;;;25.55;16.45;;;1.60;99.90;;;;;;5057039;28;20407;-74
2021/03/20 04:22:49;;;;;;;28.35;16.92;;;1.60;99.90;;;;;;5071179;28;20027;-76
2021/03/20 04:25:32;;;;;;;27.80;16.02;;;1.60;99.90;;;;;;5072232;28;20021;-74
2021/03/20 04:28:30;;;;;;;27.88;16.52;;;1.60;99.90;;;;;;5068450;28;20456;-74
2021/03/20 04:31:18;;;;;;;28.42;16.10;;;1.50;99.90;;;;;;5067129;28;20032;-74
2021/03/20 04:34:14;;;;;;;31.98;16.63;;;1.50;99.90;;;;;;5071746;28;20566;-74
2021/03/20 04:36:57;;;;;;;32.42;17.73;;;1.50;99.90;;;;;;5057453;28;20440;-75
2021/03/20 04:39:26;;;;;;;28.55;16.15;;;1.50;99.90;;;;;;5071671;28;20024;-74
2021/03/20 04:41:54;;;;;;;26.25;15.98;;;1.50;99.90;;;;;;5073101;28;20232;-75
2021/03/20 04:44:21;;;;;;;27.52;16.33;;;1.60;99.90;;;;;;5074412;28;20077;-74
2021/03/20 04:46:49;;;;;;;26.58;16.35;;;1.60;99.90;;;;;;5076918;28;20116;-74
2021/03/20 04:49:40;;;;;;;31.55;16.23;;;1.50;99.90;;;;;;5076120;28;20638;-74
2021/03/20 04:52:28;;;;;;;31.20;16.23;;;1.50;99.90;;;;;;5091705;28;20483;-74
2021/03/20 04:54:55;;;;;;;25.58;15.43;;;1.40;99.90;;;;;;5068452;28;20031;-74
2021/03/20 04:57:29;;;;;;;30.77;16.42;;;1.40;99.90;;;;;;5071427;28;20078;-74
2021/03/20 05:00:24;;;;;;;27.88;17.48;;;1.40;99.90;;;;;;5072247;28;20031;-74
2021/03/20 05:02:57;;;;;;;33.45;17.10;;;1.30;99.90;;;;;;5074276;28;20028;-76
2021/03/20 05:05:38;;;;;;;28.13;16.17;;;1.40;99.90;;;;;;5070532;28;20035;-74
2021/03/20 05:08:15;;;;;;;29.33;16.70;;;1.40;99.90;;;;;;5070400;28;20280;-76
2021/03/20 05:10:46;;;;;;;26.80;16.83;;;1.40;99.90;;;;;;5071716;28;20021;-73
2021/03/20 05:13:39;;;;;;;26.03;16.40;;;1.30;99.90;;;;;;5081988;28;20041;-75
2021/03/20 05:16:31;;;;;;;26.05;16.60;;;1.30;99.90;;;;;;5084900;28;20036;-73
2021/03/20 05:18:56;;;;;;;28.00;15.60;;;1.30;99.90;;;;;;5071758;28;20031;-73
2021/03/20 05:21:28;;;;;;;27.83;16.95;;;1.40;99.90;;;;;;5065403;28;20100;-74
2021/03/20 05:24:00;;;;;;;27.98;16.30;;;1.40;99.90;;;;;;5070178;28;20048;-74
2021/03/20 05:26:29;;;;;;;17.38;11.20;;;1.40;99.90;;;;;;5071220;28;20044;-75
2021/03/20 05:28:55;;;;;;;28.33;15.88;;;1.40;99.90;;;;;;5075617;28;20021;-74
2021/03/20 05:31:21;;;;;;;29.10;15.52;;;1.40;99.90;;;;;;5074091;28;20029;-74
2021/03/20 05:33:49;;;;;;;24.98;15.57;;;1.40;99.90;;;;;;5073936;28;20035;-74
2021/03/20 05:36:18;;;;;;;26.38;15.88;;;1.30;99.90;;;;;;5073135;28;20088;-74
2021/03/20 05:38:46;;;;;;;27.92;15.93;;;1.30;99.90;;;;;;5074123;28;20024;-73
2021/03/20 05:41:12;;;;;;;27.35;15.25;;;1.30;99.90;;;;;;5068586;28;20021;-73
2021/03/20 05:44:05;;;;;;;26.52;16.48;;;1.40;99.90;;;;;;5075598;28;20017;-75
2021/03/20 05:46:41;;;;;;;;;;;1.40;99.90;;;;;;5075598;28;20938;-75
2021/03/20 05:49:37;;;;;;;29.83;17.17;;;1.30;99.90;;;;;;5073458;28;19916;-75
2021/03/20 05:52:15;;;;;;;32.22;16.67;;;1.30;99.90;;;;;;5072488;28;20055;-75
2021/03/20 05:55:06;;;;;;;30.35;16.42;;;1.40;99.90;;;;;;5073318;28;20665;-75
2021/03/20 05:57:40;;;;;;;27.48;16.83;;;1.40;99.90;;;;;;5079314;28;20052;-74
2021/03/20 06:00:39;;;;;;;26.73;16.40;;;1.40;99.90;;;;;;5074050;28;20020;-76
2021/03/20 06:03:26;;;;;;;32.42;17.65;;;1.40;99.90;;;;;;5071443;28;20032;-75
2021/03/20 06:06:33;;;;;;;26.98;16.02;;;1.40;99.90;;;;;;5073782;28;20017;-75
2021/03/20 06:09:21;;;;;;;29.17;15.77;;;1.50;99.90;;;;;;5075021;28;20099;-75
2021/03/20 06:12:02;;;;;;;26.63;15.82;;;1.50;99.90;;;;;;5072428;28;20020;-77
2021/03/20 06:15:08;;;;;;;28.10;16.20;;;1.60;99.90;;;;;;5054090;28;20012;-73
2021/03/20 06:18:04;;;;;;;27.55;16.55;;;1.60;99.90;;;;;;5074017;28;20020;-74
2021/03/20 06:20:49;;;;;;;32.25;16.50;;;1.50;99.90;;;;;;5060079;28;20353;-75
2021/03/20 06:23:38;;;;;;;26.55;15.73;;;1.50;99.90;;;;;;5069823;28;20029;-74
2021/03/20 06:26:28;;;;;;;27.92;17.05;;;1.60;99.90;;;;;;5072324;28;20012;-74
2021/03/20 06:29:15;;;;;;;24.70;15.95;;;1.60;99.90;;;;;;5069102;28;20022;-76
2021/03/20 06:32:03;;;;;;;25.17;15.07;;;1.70;99.90;;;;;;5066970;28;20510;-75
2021/03/20 06:35:01;;;;;;;24.95;14.63;;;1.70;99.90;;;;;;5074752;28;20045;-74
2021/03/20 06:37:33;;;;;;;28.73;15.52;;;1.80;99.90;;;;;;5074565;28;20020;-75
2021/03/20 06:40:18;;;;;;;28.10;14.82;;;1.80;99.90;;;;;;5070217;28;20074;-74
2021/03/20 06:42:45;;;;;;;27.88;14.15;;;1.80;99.90;;;;;;5068375;28;20025;-76
2021/03/20 06:45:40;;;;;;;23.25;13.27;;;1.90;99.90;;;;;;5068426;28;20527;-71
2021/03/20 06:48:10;;;;;;;23.30;13.25;;;2.00;99.90;;;;;;5049457;28;20414;-74
2021/03/20 06:50:57;;;;;;;22.90;12.60;;;2.10;99.90;;;;;;5072836;28;20016;-75
2021/03/20 06:54:04;;;;;;;22.70;12.52;;;2.20;99.90;;;;;;5072692;28;20510;-75
2021/03/20 06:56:35;;;;;;;27.00;12.05;;;2.30;99.90;;;;;;5070339;28;20040;-73
2021/03/20 06:59:09;;;;;;;19.77;11.65;;;2.50;99.90;;;;;;5072304;28;20012;-74
2021/03/20 07:01:58;;;;;;;22.83;11.68;;;2.40;99.90;;;;;;5073100;28;20506;-76
2021/03/20 07:04:42;;;;;;;16.45;9.43;;;2.30;99.90;;;;;;5072880;28;20020;-74
2021/03/20 07:07:39;;;;;;;17.17;11.00;;;2.50;99.90;;;;;;5069706;28;20414;-74
2021/03/20 07:10:35;;;;;;;20.50;10.85;;;2.60;99.90;;;;;;5062937;28;20051;-76
2021/03/20 07:13:05;;;;;;;15.98;9.98;;;2.70;99.90;;;;;;5070285;28;20029;-72
2021/03/20 07:15:31;;;;;;;14.40;9.73;;;2.70;99.90;;;;;;5065226;28;20025;-73
2021/03/20 07:18:19;;;;;;;16.95;10.38;;;2.80;99.90;;;;;;5068840;28;20031;-75
2021/03/20 07:20:46;;;;;;;16.65;9.65;;;2.80;99.90;;;;;;5070450;28;20073;-73
2021/03/20 07:23:16;;;;;;;15.63;10.57;;;2.70;99.90;;;;;;5072203;28;20012;-72
2021/03/20 07:25:48;;;;;;;18.15;10.65;;;2.60;99.90;;;;;;5061965;28;20048;-77
2021/03/20 07:28:19;;;;;;;16.35;9.80;;;2.50;99.90;;;;;;5070405;28;20017;-78
2021/03/20 07:31:02;;;;;;;16.75;10.25;;;2.60;99.90;;;;;;5071796;28;20803;-77
2021/03/20 07:33:46;;;;;;;16.10;10.25;;;2.70;99.90;;;;;;5071163;28;20020;-77
2021/03/20 07:36:36;;;;;;;14.98;9.88;;;2.70;99.90;;;;;;5071346;28;20024;-77
2021/03/20 07:39:21;;;;;;;15.77;9.98;;;2.70;99.90;;;;;;5060003;28;20432;-76
2021/03/20 07:41:53;;;;;;;16.67;9.98;;;2.70;99.90;;;;;;5068587;28;20112;-75
2021/03/20 07:44:24;;;;;;;18.00;10.15;;;2.80;99.90;;;;;;5066007;28;20070;-76
2021/03/20 07:46:51;;;;;;;15.00;9.50;;;3.00;99.90;;;;;;5064063;28;20017;-74
2021/03/20 07:49:32;;;;;;;14.77;10.27;;;3.10;99.90;;;;;;5062658;28;20103;-75
2021/03/20 07:52:01;;;;;;;18.05;9.60;;;3.20;99.90;;;;;;5069553;28;20024;-74
2021/03/20 07:54:33;;;;;;;14.55;9.85;;;3.30;99.90;;;;;;5068308;28;20020;-74
2021/03/20 07:57:18;;;;;;;16.17;10.10;;;3.50;99.90;;;;;;5069850;28;20039;-73
2021/03/20 07:59:47;;;;;;;13.55;8.68;;;3.70;99.90;;;;;;5069871;28;20100;-74
2021/03/20 08:02:37;;;;;;;13.27;9.25;;;4.00;99.90;;;;;;5067761;28;20529;-73
2021/03/20 08:05:24;;;;;;;19.45;9.05;;;4.10;99.90;;;;;;5068762;28;20016;-74
2021/03/20 08:07:51;;;;;;;12.10;7.90;;;4.00;99.90;;;;;;5061045;28;20024;-75
2021/03/20 08:10:26;;;;;;;12.27;8.43;;;3.90;99.90;;;;;;5070568;28;20021;-72
2021/03/20 08:13:05;;;;;;;14.98;9.05;;;4.00;99.90;;;;;;5069822;28;20032;-73
2021/03/20 08:15:33;;;;;;;12.20;8.50;;;4.20;99.90;;;;;;5068934;28;20008;-75
2021/03/20 08:18:09;;;;;;;14.05;7.25;;;4.30;99.90;;;;;;5069160;28;20023;-73
2021/03/20 08:20:35;;;;;;;14.52;7.38;;;4.50;99.90;;;;;;5068820;28;20016;-76
2021/03/20 08:23:28;;;;;;;9.68;7.60;;;4.60;99.90;;;;;;5069109;28;20012;-76
2021/03/20 08:26:18;;;;;;;12.32;7.10;;;4.60;99.90;;;;;;5068357;28;20020;-75
2021/03/20 08:28:50;;;;;;;9.32;6.97;;;4.60;99.90;;;;;;5062385;28;20045;-76
2021/03/20 08:31:23;;;;;;;10.03;6.40;;;4.80;99.90;;;;;;5068697;28;20027;-76
2021/03/20 08:34:00;;;;;;;9.40;6.93;;;4.90;99.90;;;;;;5069059;28;20549;-75
2021/03/20 08:36:53;;;;;;;11.85;6.78;;;5.20;99.90;;;;;;5066437;28;20028;-73
2021/03/20 08:39:50;;;;;;;11.73;7.18;;;5.20;99.90;;;;;;5064791;28;20043;-77
2021/03/20 08:42:31;;;;;;;8.93;6.18;;;5.50;99.90;;;;;;5069722;28;20024;-76
2021/03/20 08:45:17;;;;;;;9.65;6.13;;;5.70;99.90;;;;;;5068883;28;20013;-76
2021/03/20 08:47:49;;;;;;;9.02;6.22;;;5.80;99.90;;;;;;5068695;28;20540;-76
2021/03/20 08:50:27;;;;;;;10.50;6.45;;;5.90;99.90;;;;;;5068075;28;20626;-77
2021/03/20 08:53:32;;;;;;;14.73;6.80;;;6.10;99.90;;;;;;5067457;28;20025;-77
2021/03/20 08:56:37;;;;;;;14.70;5.65;;;5.40;99.90;;;;;;5054857;28;20043;-76
2021/03/20 08:59:10;;;;;;;10.32;6.28;;;5.60;99.90;;;;;;5041607;28;20048;-77
2021/03/20 09:01:48;;;;;;;9.95;7.05;;;5.80;99.90;;;;;;5070086;28;20502;-76
2021/03/20 09:04:31;;;;;;;11.32;7.00;;;6.20;99.90;;;;;;5073855;28;20285;-77
2021/03/20 09:07:00;;;;;;;10.35;6.80;;;6.20;99.90;;;;;;5075224;28;20025;-76
2021/03/20 09:09:30;;;;;;;11.15;7.30;;;6.50;99.90;;;;;;5072170;28;20107;-76
2021/03/20 09:12:34;;;;;;;11.57;6.50;;;6.70;99.90;;;;;;5067844;28;20032;-78
2021/03/20 09:15:00;;;;;;;11.20;6.57;;;6.20;99.90;;;;;;5081603;28;20024;-72
2021/03/20 09:17:30;;;;;;;8.75;5.10;;;6.60;99.90;;;;;;5071301;28;20024;-75
2021/03/20 09:20:37;;;;;;;6.70;4.88;;;6.50;99.90;;;;;;5067952;28;20581;-76
2021/03/20 09:23:04;;;;;;;5.82;3.97;;;6.00;99.90;;;;;;5061298;28;20142;-76
2021/03/20 09:25:39;;;;;;;4.85;2.95;;;5.90;99.90;;;;;;5068730;28;20013;-76
2021/03/20 09:28:27;;;;;;;4.63;2.60;;;6.00;99.90;;;;;;5069246;28;20116;-75
2021/03/20 09:30:58;;;;;;;5.00;2.90;;;6.20;99.40;;;;;;5067265;28;20039;-76
2021/03/20 09:33:27;;;;;;;5.53;3.70;;;7.00;97.50;;;;;;5069522;28;20056;-76
2021/03/20 09:35:58;;;;;;;6.53;3.80;;;6.70;96.10;;;;;;5066838;28;21024;-74
2021/03/20 09:38:36;;;;;;;6.03;4.28;;;6.60;98.90;;;;;;5057010;28;20028;-76
2021/03/20 09:41:12;;;;;;;6.47;3.67;;;7.10;95.40;;;;;;5069374;28;20056;-76
2021/03/20 09:43:48;;;;;;;4.60;3.30;;;6.60;94.20;;;;;;5068742;28;20032;-75
2021/03/20 09:46:32;;;;;;;4.80;2.70;;;6.70;95.30;;;;;;5068428;28;20074;-77
2021/03/20 09:49:07;;;;;;;5.90;2.38;;;6.60;91.70;;;;;;5067237;28;20543;-75
2021/03/20 09:51:48;;;;;;;4.22;1.70;;;7.00;92.20;;;;;;5067201;28;20032;-77
2021/03/20 09:56:56;;;;;;;2.88;2.10;;;7.00;87.50;;;;;;5071608;28;20185;-75
2021/03/20 09:59:29;;;;;;;3.80;2.53;;;7.60;90.20;;;;;;5062294;28;20017;-78
2021/03/20 10:01:56;;;;;;;3.30;2.67;;;7.10;87.40;;;;;;5066063;28;20032;-76
2021/03/20 10:04:34;;;;;;;3.65;2.25;;;6.90;88.20;;;;;;5066243;28;20032;-77
2021/03/20 10:07:21;;;;;;;2.85;2.00;;;7.00;86.40;;;;;;5067807;28;20036;-77
2021/03/20 10:10:01;;;;;;;3.85;1.95;;;6.80;84.80;;;;;;5065839;28;20495;-77
2021/03/20 10:12:35;;;;;;;3.80;2.15;;;7.10;87.50;;;;;;5063696;28;20037;-75
2021/03/20 10:15:28;;;;;;;5.85;2.03;;;7.90;86.20;;;;;;5066545;28;20031;-75
2021/03/20 10:18:23;;;;;;;3.50;2.72;;;8.40;84.00;;;;;;5066723;28;20036;-78
2021/03/20 10:20:52;;;;;;;3.25;2.38;;;7.50;83.60;;;;;;5067376;28;20072;-76
2021/03/20 10:23:24;;;;;;;1.98;1.75;;;6.90;83.60;;;;;;5070006;28;20437;-75
2021/03/20 10:25:53;;;;;;;4.88;3.10;;;6.90;83.30;;;;;;5066511;28;20019;-77
2021/03/20 10:28:20;;;;;;;6.13;3.13;;;7.00;87.10;;;;;;5060305;28;20086;-75
2021/03/20 10:30:59;;;;;;;4.28;2.88;;;6.90;88.70;;;;;;5067528;28;20590;-75
2021/03/20 10:33:29;;;;;;;3.88;2.63;;;7.40;86.20;;;;;;5068762;28;20060;-75
2021/03/20 10:36:26;;;;;;;6.15;3.25;;;7.40;87.50;;;;;;5072534;28;20021;-76
2021/03/20 10:38:52;;;;;;;6.20;3.63;;;7.10;87.70;;;;;;5076216;28;20092;-75
2021/03/20 10:41:23;;;;;;;4.85;3.60;;;7.30;89.50;;;;;;5071211;28;20070;-75
2021/03/20 10:43:54;;;;;;;10.50;4.23;;;7.70;87.50;;;;;;5078012;28;20651;-78
2021/03/20 10:46:29;;;;;;;6.95;3.78;;;7.40;87.70;;;;;;5076676;28;20063;-77
2021/03/20 10:48:58;;;;;;;5.10;3.38;;;7.00;89.80;;;;;;5074943;28;20082;-75
2021/03/20 10:51:27;;;;;;;8.38;3.42;;;7.10;90.40;;;;;;5071531;28;20471;-76
2021/03/20 10:54:04;;;;;;;4.80;3.85;;;7.30;90.40;;;;;;5069231;28;20040;-76
2021/03/20 10:56:31;;;;;;;4.63;3.78;;;7.40;89.60;;;;;;5068502;28;20328;-76
2021/03/20 10:58:58;;;;;;;8.52;4.63;;;7.70;89.10;;;;;;5072403;28;20016;-79
2021/03/20 11:01:35;;;;;;;6.28;3.85;;;7.90;89.30;;;;;;5073467;28;20032;-77
2021/03/20 11:04:04;;;;;;;5.80;4.40;;;7.90;89.00;;;;;;5069900;28;20047;-77
2021/03/20 11:06:31;;;;;;;5.65;4.18;;;8.10;88.60;;;;;;5070966;28;20025;-76
2021/03/20 11:09:21;;;;;;;14.43;4.63;;;8.00;87.10;;;;;;5070711;28;20008;-76
2021/03/20 11:11:48;;;;;;;5.32;3.90;;;7.90;87.70;;;;;;5070309;28;20028;-77
2021/03/20 11:14:21;;;;;;;5.60;4.05;;;7.90;86.80;;;;;;5070196;28;20029;-78
2021/03/20 11:16:52;;;;;;;5.65;4.00;;;8.10;87.20;;;;;;5069874;28;20479;-75
2021/03/20 11:19:22;;;;;;;5.30;4.45;;;8.40;88.40;;;;;;5072523;28;20032;-77
2021/03/20 11:21:50;;;;;;;4.38;3.80;;;9.30;86.60;;;;;;5070432;28;20008;-77
2021/03/20 11:24:35;;;;;;;8.88;4.07;;;9.80;83.30;;;;;;5067281;28;20614;-75
2021/03/20 11:27:27;;;;;;;5.10;3.45;;;10.20;81.50;;;;;;5068891;28;20090;-78
2021/03/20 11:29:57;;;;;;;5.97;3.63;;;10.80;80.60;;;;;;5071367;28;20391;-79
2021/03/20 11:32:28;;;;;;;4.88;3.58;;;10.80;78.20;;;;;;5050846;28;20383;-77
2021/03/20 11:35:08;;;;;;;6.25;3.85;;;10.00;79.50;;;;;;5071296;28;20036;-76
2021/03/20 11:37:34;;;;;;;6.10;4.60;;;10.60;78.40;;;;;;5067708;28;20020;-75
2021/03/20 11:40:02;;;;;;;15.38;4.90;;;11.00;78.00;;;;;;5068151;28;20092;-77
2021/03/20 11:42:38;;;;;;;7.65;4.95;;;11.20;77.20;;;;;;5071425;28;20017;-75
2021/03/20 11:45:25;;;;;;;6.95;4.30;;;11.30;78.10;;;;;;5068027;28;20476;-77
2021/03/20 11:47:54;;;;;;;7.45;4.93;;;11.20;76.80;;;;;;5065377;28;20121;-75
2021/03/20 11:50:28;;;;;;;7.43;4.65;;;11.50;76.80;;;;;;5082891;28;20040;-77
2021/03/20 11:52:59;;;;;;;10.10;5.28;;;11.60;77.10;;;;;;5060947;28;20025;-76
2021/03/20 11:55:41;;;;;;;8.15;5.60;;;11.10;78.40;;;;;;5066575;28;20023;-75
2021/03/20 11:58:37;;;;;;;8.43;5.68;;;11.30;79.70;;;;;;5072295;28;20032;-77
2021/03/20 12:01:26;;;;;;;7.95;5.60;;;10.70;79.30;;;;;;5059158;28;20032;-76
2021/03/20 12:03:53;;;;;;;6.97;5.03;;;10.80;81.30;;;;;;5070161;28;20107;-76
2021/03/20 12:06:23;;;;;;;12.18;5.72;;;11.30;79.60;;;;;;5071216;28;20036;-77
2021/03/20 12:09:00;;;;;;;6.00;4.75;;;11.60;79.20;;;;;;5069871;28;20024;-77
2021/03/20 12:11:44;;;;;;;8.93;5.53;;;12.00;78.40;;;;;;5071419;28;20032;-75
2021/03/20 12:14:30;;;;;;;7.10;5.25;;;12.20;77.70;;;;;;5051455;28;20079;-76
2021/03/20 12:17:08;;;;;;;7.93;6.03;;;12.00;77.60;;;;;;5066857;28;20639;-75
2021/03/20 12:19:54;;;;;;;9.20;6.05;;;11.90;79.90;;;;;;5069920;28;20044;-79
2021/03/20 12:22:50;;;;;;;8.65;5.97;;;11.80;79.90;;;;;;5070380;28;20021;-75
2021/03/20 12:25:16;;;;;;;9.63;6.45;;;11.70;79.90;;;;;;5066493;28;20040;-76
2021/03/20 12:27:41;;;;;;;10.32;6.72;;;11.80;79.30;;;;;;5069240;28;20040;-75
2021/03/20 12:30:27;;;;;;;8.88;5.63;;;11.80;78.40;;;;;;5070856;28;20032;-75
2021/03/20 12:33:16;;;;;;;9.88;5.57;;;11.70;78.00;;;;;;5070774;28;20107;-77
2021/03/20 12:35:49;;;;;;;13.70;6.22;;;12.00;78.10;;;;;;5070644;28;20025;-77
2021/03/20 12:38:28;;;;;;;9.60;6.07;;;12.20;78.80;;;;;;5070806;28;20056;-77
2021/03/20 12:40:57;;;;;;;8.32;5.38;;;12.00;78.20;;;;;;5069858;28;20067;-74
2021/03/20 12:43:37;;;;;;;7.70;5.60;;;11.80;80.70;;;;;;5072141;28;20047;-75
2021/03/20 12:46:07;;;;;;;7.70;6.00;;;11.30;79.20;;;;;;5069852;28;20012;-75
2021/03/20 12:48:42;;;;;;;6.68;5.68;;;11.60;77.80;;;;;;5070198;28;20692;-74
2021/03/20 12:51:16;;;;;;;9.32;6.05;;;10.80;78.80;;;;;;5071036;28;20016;-77
2021/03/20 12:53:42;;;;;;;10.18;6.15;;;10.40;81.40;;;;;;5066622;28;20021;-75
2021/03/20 12:56:08;;;;;;;12.52;6.70;;;11.20;81.60;;;;;;5071853;28;20052;-77
2021/03/20 12:58:37;;;;;;;8.65;6.38;;;11.50;80.50;;;;;;5072242;28;20036;-75
2021/03/20 13:01:03;;;;;;;11.30;7.15;;;12.20;78.80;;;;;;5072784;28;20025;-74
2021/03/20 13:03:33;;;;;;;12.82;7.68;;;12.60;77.00;;;;;;5074457;28;20017;-76
2021/03/20 13:05:58;;;;;;;11.07;7.57;;;12.10;77.70;;;;;;5070254;28;20029;-73
2021/03/20 13:08:25;;;;;;;12.07;7.43;;;11.20;81.00;;;;;;5074819;28;20207;-77
2021/03/20 13:10:51;;;;;;;10.48;7.15;;;11.60;80.20;;;;;;5074783;28;20080;-76
2021/03/20 13:13:17;;;;;;;10.95;7.30;;;11.40;80.90;;;;;;5074486;28;20055;-74
2021/03/20 13:15:42;;;;;;;11.13;7.80;;;11.70;79.80;;;;;;5088841;28;20084;-78
2021/03/20 13:18:09;;;;;;;13.23;7.72;;;11.80;80.40;;;;;;5081934;28;20029;-77
2021/03/20 13:20:35;;;;;;;12.48;7.78;;;12.20;79.10;;;;;;5088283;28;20118;-78
2021/03/20 13:23:03;;;;;;;11.90;8.25;;;12.50;79.50;;;;;;5090944;28;20005;-78
2021/03/20 13:25:33;;;;;;;9.55;6.90;;;12.60;79.10;;;;;;5081706;28;20144;-78
2021/03/20 13:28:16;;;;;;;10.32;8.00;;;12.60;78.00;;;;;;5095522;28;20018;-77
2021/03/20 13:30:45;;;;;;;11.35;8.10;;;10.70;84.40;;;;;;5091897;28;20052;-75
2021/03/20 13:33:18;;;;;;;14.43;8.20;;;10.10;86.60;;;;;;5095856;28;20020;-77
2021/03/20 13:35:45;;;;;;;15.70;9.00;;;9.80;88.50;;;;;;5092600;28;20076;-75